createdAt,value
2022-11-16T00:01:53.756Z,8.60
2022-11-16T00:04:22.654Z,8.60
2022-11-16T00:06:50.826Z,8.60
2022-11-16T00:09:26.955Z,8.60
2022-11-16T00:11:56.573Z,8.60
2022-11-16T00:14:26.028Z,8.60
2022-11-16T00:16:55.309Z,8.60
2022-11-16T00:19:23.516Z,8.50
2022-11-16T00:21:51.336Z,8.50
2022-11-16T00:24:21.201Z,8.50
2022-11-16T00:26:49.938Z,8.60
2022-11-16T00:29:20.231Z,8.60
2022-11-16T00:31:48.602Z,8.60
2022-11-16T00:34:18.277Z,8.60
2022-11-16T00:36:46.053Z,8.60
2022-11-16T00:39:14.588Z,8.60
2022-11-16T00:41:42.662Z,8.60
2022-11-16T00:44:10.585Z,8.60
2022-11-16T00:46:38.418Z,8.50
2022-11-16T00:49:07.489Z,8.50
2022-11-16T00:51:37.853Z,8.50
2022-11-16T00:54:07.699Z,8.50
2022-11-16T00:56:37.035Z,8.50
2022-11-16T00:59:06.088Z,8.50
2022-11-16T01:01:34.234Z,8.50
2022-11-16T01:04:02.304Z,8.50
2022-11-16T01:06:30.091Z,8.50
2022-11-16T01:08:59.267Z,8.50
2022-11-16T01:11:44.613Z,8.50
2022-11-16T01:14:13.139Z,8.50
2022-11-16T01:16:43.065Z,8.50
2022-11-16T01:19:11.249Z,8.60
2022-11-16T01:21:38.989Z,8.60
2022-11-16T01:24:08.377Z,8.60
2022-11-16T01:26:36.163Z,8.60
2022-11-16T01:29:04.725Z,8.60
2022-11-16T01:31:36.546Z,8.60
2022-11-16T01:34:05.426Z,8.60
2022-11-16T01:36:33.212Z,8.50
2022-11-16T01:39:02.324Z,8.50
2022-11-16T01:41:36.878Z,8.50
2022-11-16T01:44:07.659Z,8.50
2022-11-16T01:46:40.674Z,8.50
2022-11-16T01:49:15.064Z,8.50
2022-11-16T01:51:46.957Z,8.50
2022-11-16T01:54:16.130Z,8.50
2022-11-16T01:56:56.987Z,8.50
2022-11-16T01:59:33.745Z,8.50
2022-11-16T02:02:02.565Z,8.50
2022-11-16T02:04:31.232Z,8.50
2022-11-16T02:07:07.155Z,8.50
2022-11-16T02:09:53.883Z,8.50
2022-11-16T02:12:51.222Z,8.50
2022-11-16T02:15:37.580Z,8.50
2022-11-16T02:18:25.716Z,8.50
2022-11-16T02:21:06.504Z,8.50
2022-11-16T02:24:16.488Z,8.50
2022-11-16T02:27:28.434Z,8.50
2022-11-16T02:29:58.390Z,8.50
2022-11-16T02:32:30.331Z,8.50
2022-11-16T02:35:05.462Z,8.50
2022-11-16T02:37:37.378Z,8.50
2022-11-16T02:40:08.824Z,8.50
2022-11-16T02:42:41.260Z,8.50
2022-11-16T02:45:16.246Z,8.50
2022-11-16T02:47:47.369Z,8.50
2022-11-16T02:50:18.644Z,8.50
2022-11-16T02:52:46.541Z,8.50
2022-11-16T02:55:14.959Z,8.50
2022-11-16T02:57:54.345Z,8.40
2022-11-16T03:00:25.836Z,8.40
2022-11-16T03:03:07.509Z,8.40
2022-11-16T03:05:39.932Z,8.40
2022-11-16T03:08:15.720Z,8.40
2022-11-16T03:11:05.792Z,8.40
2022-11-16T03:13:36.653Z,8.40
2022-11-16T03:16:11.181Z,8.40
2022-11-16T03:18:40.733Z,8.40
2022-11-16T03:21:16.231Z,8.40
2022-11-16T03:23:46.173Z,8.40
2022-11-16T03:26:19.334Z,8.30
2022-11-16T03:28:56.010Z,8.30
2022-11-16T03:31:30.146Z,8.30
2022-11-16T03:34:03.804Z,8.20
2022-11-16T03:36:34.862Z,8.20
2022-11-16T03:39:05.326Z,8.10
2022-11-16T03:41:38.104Z,7.90
2022-11-16T03:44:08.736Z,8.00
2022-11-16T03:46:38.070Z,8.00
2022-11-16T03:49:07.176Z,7.90
2022-11-16T03:51:37.933Z,7.90
2022-11-16T03:54:06.549Z,7.90
2022-11-16T03:56:35.983Z,7.80
2022-11-16T03:59:04.044Z,7.80
2022-11-16T04:01:32.740Z,7.70
2022-11-16T04:04:02.811Z,7.80
2022-11-16T04:06:48.275Z,7.80
2022-11-16T04:09:33.540Z,7.80
2022-11-16T04:12:18.862Z,7.80
2022-11-16T04:15:04.289Z,7.80
2022-11-16T04:17:52.122Z,7.70
2022-11-16T04:20:39.563Z,7.70
2022-11-16T04:23:31.736Z,7.70
2022-11-16T04:25:59.721Z,7.70
2022-11-16T04:28:31.530Z,7.60
2022-11-16T04:31:23.023Z,7.60
2022-11-16T04:34:24.441Z,7.60
2022-11-16T04:37:14.392Z,7.60
2022-11-16T04:39:42.340Z,7.70
2022-11-16T04:42:15.568Z,7.70
2022-11-16T04:45:03.035Z,7.70
2022-11-16T04:47:37.475Z,7.60
2022-11-16T04:50:06.362Z,7.60
2022-11-16T04:52:35.509Z,7.70
2022-11-16T04:55:05.251Z,7.60
2022-11-16T04:57:33.546Z,7.60
2022-11-16T05:00:01.370Z,7.60
2022-11-16T05:02:29.261Z,7.70
2022-11-16T05:04:59.074Z,7.60
2022-11-16T05:07:27.791Z,7.60
2022-11-16T05:10:05.344Z,7.60
2022-11-16T05:12:34.404Z,7.60
2022-11-16T05:15:05.379Z,7.60
2022-11-16T05:17:35.012Z,7.60
2022-11-16T05:20:22.992Z,7.60
2022-11-16T05:22:55.485Z,7.60
2022-11-16T05:25:27.954Z,7.60
2022-11-16T05:27:59.404Z,7.60
2022-11-16T05:30:29.622Z,7.60
2022-11-16T05:32:59.622Z,7.60
2022-11-16T05:35:28.984Z,7.70
2022-11-16T05:37:56.745Z,7.70
2022-11-16T05:40:25.867Z,7.70
2022-11-16T05:42:59.463Z,7.70
2022-11-16T05:45:30.255Z,7.80
2022-11-16T05:48:00.525Z,7.80
2022-11-16T05:50:28.545Z,7.80
2022-11-16T05:53:12.418Z,7.80
2022-11-16T05:55:41.600Z,7.80
2022-11-16T05:58:09.358Z,7.80
2022-11-16T06:00:37.116Z,7.80
2022-11-16T06:03:05.237Z,7.80
2022-11-16T06:05:40.295Z,7.90
2022-11-16T06:08:09.317Z,7.90
2022-11-16T06:10:37.718Z,7.90
2022-11-16T06:13:07.779Z,7.90
2022-11-16T06:15:38.045Z,8.00
2022-11-16T06:18:05.932Z,8.00
2022-11-16T06:20:34.039Z,8.00
2022-11-16T06:23:02.133Z,8.00
2022-11-16T06:25:30.757Z,8.00
2022-11-16T06:27:58.919Z,8.00
2022-11-16T06:30:28.205Z,8.10
2022-11-16T06:32:56.417Z,8.00
2022-11-16T06:35:24.221Z,8.10
2022-11-16T06:37:52.034Z,8.10
2022-11-16T06:40:19.837Z,8.10
2022-11-16T06:42:47.684Z,8.10
2022-11-16T06:45:15.653Z,8.10
2022-11-16T06:47:50.387Z,8.10
2022-11-16T06:50:19.714Z,8.10
2022-11-16T06:52:48.099Z,8.10
2022-11-16T06:55:17.542Z,8.10
2022-11-16T06:57:46.230Z,8.10
2022-11-16T07:00:15.290Z,8.10
2022-11-16T07:02:43.148Z,8.20
2022-11-16T07:05:15.844Z,8.20
2022-11-16T07:07:43.674Z,8.20
2022-11-16T07:10:12.118Z,8.20
2022-11-16T07:12:39.888Z,8.20
2022-11-16T07:15:09.640Z,8.20
2022-11-16T07:17:41.021Z,8.20
2022-11-16T07:20:09.783Z,8.20
2022-11-16T07:22:39.391Z,8.10
2022-11-16T07:25:08.619Z,8.20
2022-11-16T07:27:36.404Z,8.10
2022-11-16T07:30:06.278Z,8.10
2022-11-16T07:32:47.029Z,8.10
2022-11-16T07:35:21.195Z,8.10
2022-11-16T07:37:50.262Z,8.10
2022-11-16T07:40:18.237Z,8.10
2022-11-16T07:42:47.047Z,8.10
2022-11-16T07:45:35.144Z,8.10
2022-11-16T07:48:07.759Z,8.10
2022-11-16T07:50:54.280Z,8.10
2022-11-16T07:53:24.411Z,8.10
2022-11-16T07:55:54.257Z,8.10
2022-11-16T07:58:24.211Z,8.10
2022-11-16T08:00:52.511Z,8.20
2022-11-16T08:03:24.645Z,8.20
2022-11-16T08:06:00.305Z,8.20
2022-11-16T08:08:29.507Z,8.20
2022-11-16T08:11:00.513Z,8.30
2022-11-16T08:13:28.721Z,8.30
2022-11-16T08:16:01.008Z,8.30
2022-11-16T08:18:29.112Z,8.30
2022-11-16T08:20:59.051Z,8.30
2022-11-16T08:23:27.021Z,8.30
2022-11-16T08:26:00.750Z,8.30
2022-11-16T08:28:30.383Z,8.30
2022-11-16T08:30:59.212Z,8.30
2022-11-16T08:33:29.594Z,8.40
2022-11-16T08:35:59.399Z,8.30
2022-11-16T08:38:27.182Z,8.30
2022-11-16T08:40:56.659Z,8.30
2022-11-16T08:43:27.226Z,8.30
2022-11-16T08:45:55.913Z,8.30
2022-11-16T08:48:23.845Z,8.30
2022-11-16T08:51:15.837Z,8.30
2022-11-16T08:53:40.951Z,8.30
2022-11-16T08:56:11.723Z,8.20
2022-11-16T08:58:42.357Z,8.20
2022-11-16T09:01:12.340Z,8.30
2022-11-16T09:03:40.668Z,8.20
2022-11-16T09:06:09.401Z,8.20
2022-11-16T09:08:38.421Z,8.20
2022-11-16T09:11:07.065Z,8.20
2022-11-16T09:13:34.922Z,8.20
2022-11-16T09:16:04.893Z,8.20
2022-11-16T09:18:33.459Z,8.20
2022-11-16T09:21:01.516Z,8.20
2022-11-16T09:23:29.297Z,8.20
2022-11-16T09:25:57.104Z,8.20
2022-11-16T09:28:24.843Z,8.20
2022-11-16T09:30:52.585Z,8.20
2022-11-16T09:33:21.694Z,8.20
2022-11-16T09:35:49.462Z,8.20
2022-11-16T09:38:24.145Z,8.20
2022-11-16T09:41:11.193Z,8.30
2022-11-16T09:43:48.177Z,8.20
2022-11-16T09:46:23.849Z,8.30
2022-11-16T09:48:53.914Z,8.30
2022-11-16T09:51:24.574Z,8.30
2022-11-16T09:53:59.301Z,8.30
2022-11-16T09:56:29.288Z,8.30
2022-11-16T09:59:03.983Z,8.30
2022-11-16T10:01:37.795Z,8.30
2022-11-16T10:04:11.150Z,8.30
2022-11-16T10:06:48.136Z,8.30
2022-11-16T10:09:16.161Z,8.30
2022-11-16T10:12:07.371Z,8.30
2022-11-16T10:15:01.392Z,8.30
2022-11-16T10:17:42.566Z,8.30
2022-11-16T10:20:42.396Z,8.30
2022-11-16T10:23:20.749Z,8.30
2022-11-16T10:25:58.948Z,8.30
2022-11-16T10:28:41.775Z,8.30
2022-11-16T10:31:17.571Z,8.30
2022-11-16T10:33:47.409Z,8.30
2022-11-16T10:36:17.402Z,8.30
2022-11-16T10:38:46.041Z,8.30
2022-11-16T10:41:21.005Z,8.30
2022-11-16T10:43:49.757Z,8.30
2022-11-16T10:46:22.437Z,8.30
2022-11-16T10:48:57.839Z,8.20
2022-11-16T10:51:26.959Z,8.20
2022-11-16T10:53:55.946Z,8.30
2022-11-16T10:56:26.885Z,8.30
2022-11-16T10:58:59.240Z,8.30
2022-11-16T11:01:36.690Z,8.30
2022-11-16T11:04:19.924Z,8.20
2022-11-16T11:06:52.153Z,8.20
2022-11-16T11:09:28.759Z,8.20
2022-11-16T11:12:17.018Z,8.20
2022-11-16T11:14:59.805Z,8.20
2022-11-16T11:17:28.134Z,8.20
2022-11-16T11:20:01.323Z,8.20
2022-11-16T11:22:31.825Z,8.20
2022-11-16T11:25:02.346Z,8.20
2022-11-16T11:27:33.885Z,8.20
2022-11-16T11:30:02.357Z,8.20
2022-11-16T11:32:35.197Z,8.20
2022-11-16T11:35:03.926Z,8.20
2022-11-16T11:37:36.157Z,8.20
2022-11-16T11:40:21.493Z,8.10
2022-11-16T11:42:58.620Z,8.10
2022-11-16T11:45:33.166Z,8.10
2022-11-16T11:48:03.248Z,8.10
2022-11-16T11:50:43.764Z,8.10
2022-11-16T11:53:24.948Z,8.20
2022-11-16T11:55:57.574Z,8.20
2022-11-16T11:58:30.340Z,8.20
2022-11-16T12:01:09.902Z,8.20
2022-11-16T12:03:50.402Z,8.20
2022-11-16T12:06:23.435Z,8.20
2022-11-16T12:09:07.014Z,8.20
2022-11-16T12:11:43.292Z,8.20
2022-11-16T12:14:35.790Z,8.20
2022-11-16T12:17:11.138Z,8.20
2022-11-16T12:20:00.073Z,8.20
2022-11-16T12:22:47.186Z,8.20
2022-11-16T12:25:25.302Z,8.20
2022-11-16T12:28:05.792Z,8.20
2022-11-16T12:30:38.087Z,8.20
2022-11-16T12:33:17.237Z,8.20
2022-11-16T12:36:02.232Z,8.20
2022-11-16T12:38:55.086Z,8.20
2022-11-16T12:41:58.881Z,8.20
2022-11-16T12:44:40.455Z,8.20
2022-11-16T12:47:18.761Z,8.20
2022-11-16T12:50:02.408Z,8.20
2022-11-16T12:52:43.325Z,8.20
2022-11-16T12:55:25.893Z,8.20
2022-11-16T12:58:13.788Z,8.20
2022-11-16T13:00:53.088Z,8.20
2022-11-16T13:03:29.096Z,8.20
2022-11-16T13:06:02.991Z,8.20
2022-11-16T13:08:42.905Z,8.20
2022-11-16T13:11:15.669Z,8.30
2022-11-16T13:13:52.664Z,8.30
2022-11-16T13:16:21.839Z,8.20
2022-11-16T13:18:50.001Z,8.20
2022-11-16T13:21:27.052Z,8.20
2022-11-16T13:24:08.457Z,8.20
2022-11-16T13:26:43.771Z,8.20
2022-11-16T13:29:19.531Z,8.30
2022-11-16T13:31:53.343Z,8.30
2022-11-16T13:34:25.439Z,8.30
2022-11-16T13:36:53.362Z,8.30
2022-11-16T13:39:39.694Z,8.30
2022-11-16T13:42:12.588Z,8.30
2022-11-16T13:44:41.759Z,8.30
2022-11-16T13:47:23.586Z,8.30
2022-11-16T13:49:53.167Z,8.30
2022-11-16T13:52:24.106Z,8.30
2022-11-16T13:55:01.535Z,8.30
2022-11-16T13:57:32.564Z,8.30
2022-11-16T14:00:13.143Z,8.30
2022-11-16T14:02:42.330Z,8.30
2022-11-16T14:05:17.388Z,8.30
2022-11-16T14:07:47.288Z,8.30
2022-11-16T14:11:00.888Z,8.30
2022-11-16T14:13:40.205Z,8.30
2022-11-16T14:16:45.584Z,8.30
2022-11-16T14:19:54.849Z,8.30
2022-11-16T14:22:41.030Z,8.30
2022-11-16T14:25:20.036Z,8.30
2022-11-16T14:27:55.217Z,8.30
2022-11-16T14:30:26.085Z,8.30
2022-11-16T14:32:56.813Z,8.20
2022-11-16T14:35:29.951Z,8.20
2022-11-16T14:38:00.167Z,8.10
2022-11-16T14:40:28.214Z,8.10
2022-11-16T14:43:15.927Z,8.10
2022-11-16T14:45:49.332Z,8.00
2022-11-16T14:48:20.198Z,8.00
2022-11-16T14:51:01.150Z,8.00
2022-11-16T14:53:29.980Z,8.00
2022-11-16T14:56:08.117Z,8.00
2022-11-16T14:58:36.765Z,8.00
2022-11-16T15:01:06.829Z,7.90
2022-11-16T15:03:41.783Z,8.00
2022-11-16T15:06:09.970Z,7.90
2022-11-16T15:08:42.721Z,7.90
2022-11-16T15:11:21.889Z,7.90
2022-11-16T15:13:50.714Z,7.90
2022-11-16T15:16:20.249Z,7.90
2022-11-16T15:19:00.422Z,7.90
2022-11-16T15:21:28.719Z,7.90
2022-11-16T15:26:44.446Z,7.90
2022-11-16T15:29:16.900Z,7.90
2022-11-16T15:31:45.046Z,7.90
2022-11-16T15:34:16.388Z,7.80
2022-11-16T15:36:44.194Z,7.80
2022-11-16T15:39:14.993Z,7.80
2022-11-16T15:41:43.598Z,7.80
2022-11-16T15:44:16.120Z,7.80
2022-11-16T15:46:47.164Z,7.80
2022-11-16T15:49:28.610Z,7.80
2022-11-16T15:51:57.544Z,7.80
2022-11-16T15:54:27.479Z,7.70
2022-11-16T15:56:57.343Z,7.80
2022-11-16T15:59:28.621Z,7.80
2022-11-16T16:01:57.211Z,7.80
2022-11-16T16:04:27.383Z,7.80
2022-11-16T16:06:56.629Z,7.70
2022-11-16T16:09:27.619Z,7.70
2022-11-16T16:11:57.202Z,7.70
2022-11-16T16:14:30.284Z,7.70
2022-11-16T16:16:59.101Z,7.70
2022-11-16T16:19:37.113Z,7.60
2022-11-16T16:22:07.236Z,7.60
2022-11-16T16:24:38.684Z,7.60
2022-11-16T16:27:15.105Z,7.60
2022-11-16T16:29:43.152Z,7.60
2022-11-16T16:32:19.747Z,7.60
2022-11-16T16:34:48.843Z,7.60
2022-11-16T16:37:16.553Z,7.60
2022-11-16T16:39:44.356Z,7.60
2022-11-16T16:42:14.505Z,7.60
2022-11-16T16:44:42.888Z,7.60
2022-11-16T16:47:10.872Z,7.60
2022-11-16T16:49:38.926Z,7.50
2022-11-16T16:52:08.769Z,7.50
2022-11-16T16:54:36.509Z,7.50
2022-11-16T16:57:04.612Z,7.50
2022-11-16T16:59:32.574Z,7.50
2022-11-16T17:02:00.473Z,7.40
2022-11-16T17:04:28.234Z,7.40
2022-11-16T17:06:56.009Z,7.40
2022-11-16T17:09:25.159Z,7.40
2022-11-16T17:11:52.889Z,7.30
2022-11-16T17:14:24.263Z,7.30
2022-11-16T17:16:52.021Z,7.30
2022-11-16T17:19:21.020Z,7.20
2022-11-16T17:21:48.824Z,7.20
2022-11-16T17:24:16.599Z,7.20
2022-11-16T17:26:48.203Z,7.20
2022-11-16T17:29:16.140Z,7.10
2022-11-16T17:31:44.811Z,7.10
2022-11-16T17:34:14.289Z,7.10
2022-11-16T17:36:42.512Z,7.10
2022-11-16T17:39:10.455Z,7.10
2022-11-16T17:41:38.335Z,7.00
2022-11-16T17:44:07.543Z,7.00
2022-11-16T17:46:35.956Z,7.00
2022-11-16T17:49:03.986Z,7.00
2022-11-16T17:51:31.719Z,7.00
2022-11-16T17:53:59.511Z,6.90
2022-11-16T17:56:28.165Z,6.90
2022-11-16T17:58:58.298Z,6.90
2022-11-16T18:01:28.814Z,6.80
2022-11-16T18:03:56.671Z,6.80
2022-11-16T18:06:25.980Z,6.80
2022-11-16T18:08:53.903Z,6.80
2022-11-16T18:11:23.158Z,6.70
2022-11-16T18:13:54.377Z,6.70
2022-11-16T18:16:23.993Z,6.60
2022-11-16T18:18:57.702Z,6.60
2022-11-16T18:21:26.276Z,6.60
2022-11-16T18:23:54.403Z,6.60
2022-11-16T18:26:24.565Z,6.60
2022-11-16T18:28:53.685Z,6.50
2022-11-16T18:31:23.321Z,6.50
2022-11-16T18:33:51.850Z,6.50
2022-11-16T18:36:22.226Z,6.50
2022-11-16T18:38:50.051Z,6.50
2022-11-16T18:41:19.936Z,6.40
2022-11-16T18:43:52.199Z,6.40
2022-11-16T18:46:21.025Z,6.40
2022-11-16T18:48:49.059Z,6.40
2022-11-16T18:51:17.763Z,6.40
2022-11-16T18:53:47.012Z,6.30
2022-11-16T18:56:15.195Z,6.30
2022-11-16T18:58:50.197Z,6.20
2022-11-16T19:01:21.742Z,6.20
2022-11-16T19:03:49.646Z,6.20
2022-11-16T19:06:17.986Z,6.30
2022-11-16T19:08:55.003Z,6.30
2022-11-16T19:11:24.771Z,6.20
2022-11-16T19:13:54.998Z,6.20
2022-11-16T19:16:24.061Z,6.10
2022-11-16T19:18:51.908Z,6.10
2022-11-16T19:21:21.774Z,6.10
2022-11-16T19:23:52.254Z,6.10
2022-11-16T19:26:21.472Z,6.10
2022-11-16T19:28:51.126Z,6.00
2022-11-16T19:31:22.783Z,6.00
2022-11-16T19:33:55.050Z,6.00
2022-11-16T19:36:23.428Z,6.00
2022-11-16T19:38:53.172Z,6.00
2022-11-16T19:41:22.479Z,5.90
2022-11-16T19:43:52.401Z,5.90
2022-11-16T19:46:21.393Z,5.90
2022-11-16T19:48:49.525Z,5.90
2022-11-16T19:51:19.044Z,5.90
2022-11-16T19:53:47.284Z,5.90
2022-11-16T19:56:17.936Z,5.90
2022-11-16T19:58:45.964Z,5.90
2022-11-16T20:01:16.931Z,5.90
2022-11-16T20:03:45.624Z,5.90
2022-11-16T20:06:15.042Z,5.90
2022-11-16T20:08:47.268Z,5.90
2022-11-16T20:11:20.166Z,5.90
2022-11-16T20:13:48.354Z,5.90
2022-11-16T20:16:17.537Z,5.90
2022-11-16T20:18:46.081Z,5.90
2022-11-16T20:21:20.132Z,5.90
2022-11-16T20:23:48.139Z,5.90
2022-11-16T20:26:17.257Z,5.80
2022-11-16T20:28:45.758Z,5.80
2022-11-16T20:31:15.389Z,5.80
2022-11-16T20:33:43.904Z,5.80
2022-11-16T20:36:12.788Z,5.80
2022-11-16T20:38:41.034Z,5.80
2022-11-16T20:41:10.453Z,5.80
2022-11-16T20:43:40.361Z,5.80
2022-11-16T20:46:08.650Z,5.80
2022-11-16T20:48:37.053Z,5.70
2022-11-16T20:51:05.925Z,5.70
2022-11-16T20:53:34.552Z,5.70
2022-11-16T20:56:03.309Z,5.70
2022-11-16T20:58:31.319Z,5.80
2022-11-16T21:01:02.179Z,5.80
2022-11-16T21:03:30.084Z,5.80
2022-11-16T21:05:58.024Z,5.80
2022-11-16T21:08:26.113Z,5.80
2022-11-16T21:10:54.524Z,5.80
2022-11-16T21:13:40.356Z,5.80
2022-11-16T21:16:12.061Z,5.80
2022-11-16T21:18:40.593Z,5.80
2022-11-16T21:21:09.893Z,5.80
2022-11-16T21:23:38.991Z,5.80
2022-11-16T21:26:09.194Z,5.80
2022-11-16T21:28:37.014Z,5.80
2022-11-16T21:31:06.780Z,5.80
2022-11-16T21:33:36.136Z,5.70
2022-11-16T21:36:05.662Z,5.70
2022-11-16T21:38:34.302Z,5.70
2022-11-16T21:41:04.220Z,5.70
2022-11-16T21:43:33.800Z,5.70
2022-11-16T21:46:03.111Z,5.60
2022-11-16T21:48:32.653Z,5.60
2022-11-16T21:51:02.580Z,5.60
2022-11-16T21:53:30.385Z,5.60
2022-11-16T21:55:58.216Z,5.60
2022-11-16T21:58:26.376Z,5.60
2022-11-16T22:00:58.201Z,5.60
2022-11-16T22:03:27.628Z,5.60
2022-11-16T22:06:13.829Z,5.60
2022-11-16T22:08:43.393Z,5.60
2022-11-16T22:11:11.929Z,5.50
2022-11-16T22:13:39.944Z,5.50
2022-11-16T22:16:09.364Z,5.50
2022-11-16T22:18:37.861Z,5.50
2022-11-16T22:21:06.140Z,5.40
2022-11-16T22:23:34.799Z,5.40
2022-11-16T22:26:05.654Z,5.50
2022-11-16T22:28:33.737Z,5.40
2022-11-16T22:31:02.539Z,5.40
2022-11-16T22:33:30.500Z,5.40
2022-11-16T22:35:58.575Z,5.40
2022-11-16T22:38:26.993Z,5.40
2022-11-16T22:40:56.306Z,5.40
2022-11-16T22:43:27.073Z,5.40
2022-11-16T22:45:58.813Z,5.40
2022-11-16T22:48:31.199Z,5.40
2022-11-16T22:51:07.564Z,5.30
2022-11-16T22:53:35.754Z,5.30
2022-11-16T22:56:08.196Z,5.30
2022-11-16T22:58:38.269Z,5.30
2022-11-16T23:01:07.899Z,5.20
2022-11-16T23:03:36.616Z,5.40
2022-11-16T23:06:05.443Z,5.40
2022-11-16T23:08:33.709Z,5.30
2022-11-16T23:11:20.205Z,5.40
2022-11-16T23:14:07.034Z,5.30
2022-11-16T23:16:34.957Z,5.30
2022-11-16T23:19:03.024Z,5.30
2022-11-16T23:21:48.560Z,5.30
2022-11-16T23:24:34.123Z,5.30
2022-11-16T23:27:21.102Z,5.30
2022-11-16T23:29:50.469Z,5.30
2022-11-16T23:32:18.223Z,5.20
2022-11-16T23:37:14.574Z,5.20
2022-11-16T23:39:42.328Z,5.20
2022-11-16T23:42:30.886Z,5.10
2022-11-16T23:44:59.999Z,5.10
2022-11-16T23:47:27.772Z,5.10
2022-11-16T23:49:55.500Z,5.10
2022-11-16T23:52:23.227Z,5.10
2022-11-16T23:54:50.959Z,5.00
2022-11-16T23:57:18.700Z,5.10
2022-11-16T23:59:46.481Z,5.00
